Time;durP1;ratioP1;P1;durP2;ratioP2;P2;SDS_P1;SDS_P2;PMS_P1;PMS_P2;Temp;Humidity;BMP_temperature;BMP_pressure;BME280_temperature;BME280_humidity;BME280_pressure;Samples;Min_cycle;Max_cycle;Signal;HPM_P1;HPM_P2
2022/06/06 00:00:38;;;;;;;;;;;;;;;25.09;67.61;101107.91;5075861;28;19916;-80
2022/06/06 00:03:03;;;;;;;;;;;;;;;25.11;67.75;101097.25;5080748;28;20021;-80
2022/06/06 00:05:29;;;;;;;;;;;;;;;25.11;67.62;101082.09;5068605;28;19942;-80
2022/06/06 00:07:54;;;;;;;;;;;;;;;25.11;67.67;101090.09;5074365;28;19912;-80
2022/06/06 00:10:20;;;;;;;;;;;;;;;25.09;67.94;101075.84;5064348;28;20297;-80
2022/06/06 00:12:45;;;;;;;;;;;;;;;25.11;67.71;101076.75;5078605;28;20503;-80
2022/06/06 00:15:13;;;;;;;;;;;;;;;25.07;68.30;101066.06;5065682;28;19920;-80
2022/06/06 00:17:39;;;;;;;;;;;;;;;25.08;68.38;101062.47;5079844;28;19969;-80
2022/06/06 00:20:05;;;;;;;;;;;;;;;25.06;68.43;101069.59;5075947;28;19912;-80
2022/06/06 00:22:30;;;;;;;;;;;;;;;25.06;68.79;101078.53;5082008;28;20404;-80
2022/06/06 00:24:55;;;;;;;;;;;;;;;25.06;68.79;101075.88;5077784;28;19912;-81
2022/06/06 00:27:21;;;;;;;;;;;;;;;25.06;68.93;101080.28;5070758;28;20385;-80
2022/06/06 00:29:46;;;;;;;;;;;;;;;25.07;68.88;101066.94;5074253;28;20045;-80
2022/06/06 00:34:55;;;;;;;;;;;;;;;25.05;69.16;101062.50;5070250;28;19923;-80
2022/06/06 00:37:23;;;;;;;;;;;;;;;25.04;69.31;101064.28;5067251;28;19911;-80
2022/06/06 00:39:48;;;;;;;;;;;;;;;25.01;69.39;101050.03;5072216;28;20381;-81
2022/06/06 00:42:23;;;;;;;;;;;;;;;25.01;69.34;101053.59;5079337;28;19931;-81
2022/06/06 00:44:48;;;;;;;;;;;;;;;25.01;69.51;101053.59;5061372;28;19912;-80
2022/06/06 00:47:14;;;;;;;;;;;;;;;25.00;69.51;101054.50;5076797;28;19916;-81
2022/06/06 00:49:41;;;;;;;;;;;;;;;25.04;69.34;101053.59;5081555;28;20321;-80
2022/06/06 00:52:10;;;;;;;;;;;;;;;25.02;69.40;101055.38;5070422;28;20384;-81
2022/06/06 00:54:36;;;;;;;;;;;;;;;25.05;69.32;101051.81;5075476;28;19970;-80
2022/06/06 00:57:06;;;;;;;;;;;;;;;25.05;69.61;101054.47;5075453;28;20002;-80
2022/06/06 00:59:32;;;;;;;;;;;;;;;24.92;69.59;101032.22;5078843;28;19919;-80
2022/06/06 01:01:58;;;;;;;;;;;;;;;24.99;69.75;101044.69;5095023;28;20464;-80
2022/06/06 01:04:24;;;;;;;;;;;;;;;24.99;69.32;101034.88;5079894;28;19909;-80
2022/06/06 01:06:50;;;;;;;;;;;;;;;24.99;69.16;101029.53;5083514;28;19920;-80
2022/06/06 01:09:16;;;;;;;;;;;;;;;24.99;68.93;101031.31;5086793;28;19922;-80
2022/06/06 01:11:46;;;;;;;;;;;;;;;24.97;69.21;101023.28;5087509;28;19912;-80
2022/06/06 01:14:12;;;;;;;;;;;;;;;25.00;68.63;101011.75;5065326;28;19969;-81
2022/06/06 01:16:40;;;;;;;;;;;;;;;25.00;68.74;101011.75;5079884;28;19985;-80
2022/06/06 01:19:23;;;;;;;;;;;;;;;24.99;68.66;101002.81;5073637;28;19916;-80
2022/06/06 01:21:54;;;;;;;;;;;;;;;24.98;68.78;101002.84;5078612;28;20262;-80
2022/06/06 01:24:20;;;;;;;;;;;;;;;24.96;68.69;101008.19;5059683;28;19945;-80
2022/06/06 01:26:54;;;;;;;;;;;;;;;24.94;68.32;101015.28;5079128;28;20416;-79
2022/06/06 01:29:34;;;;;;;;;;;;;;;24.91;68.48;101001.03;5069355;28;19919;-79
2022/06/06 01:32:01;;;;;;;;;;;;;;;24.93;68.43;101005.53;5076758;28;20419;-79
2022/06/06 01:34:31;;;;;;;;;;;;;;;24.92;68.37;101008.19;5073010;28;20300;-80
2022/06/06 01:36:57;;;;;;;;;;;;;;;24.95;68.09;101002.81;5076315;28;19915;-79
2022/06/06 01:39:22;;;;;;;;;;;;;;;24.96;67.95;101013.50;5066353;28;19919;-80
2022/06/06 01:41:51;;;;;;;;;;;;;;;24.92;68.30;101011.75;5063201;28;20355;-79
2022/06/06 01:44:25;;;;;;;;;;;;;;;24.91;68.20;101009.06;5059973;28;19909;-79
2022/06/06 01:46:51;;;;;;;;;;;;;;;24.93;68.12;101005.53;5069488;28;19915;-79
2022/06/06 01:49:16;;;;;;;;;;;;;;;24.94;67.88;101014.41;5058455;28;20446;-79
2022/06/06 01:51:42;;;;;;;;;;;;;;;24.94;67.99;101019.75;5063134;28;19966;-81
2022/06/06 01:54:07;;;;;;;;;;;;;;;24.92;67.98;101032.22;5089578;28;19916;-80
2022/06/06 01:56:34;;;;;;;;;;;;;;;24.88;68.08;101031.34;5077315;28;20366;-80
2022/06/06 01:59:00;;;;;;;;;;;;;;;24.88;67.98;101033.13;5073952;28;19942;-81
2022/06/06 02:01:25;;;;;;;;;;;;;;;24.87;67.78;101029.56;5066665;28;19916;-80
2022/06/06 02:03:51;;;;;;;;;;;;;;;24.84;68.07;101026.00;5072538;28;19981;-81
2022/06/06 02:06:17;;;;;;;;;;;;;;;24.88;67.70;101028.66;5071510;28;19911;-81
2022/06/06 02:08:42;;;;;;;;;;;;;;;24.85;67.76;101026.00;5079944;28;19946;-81
2022/06/06 02:11:08;;;;;;;;;;;;;;;24.86;67.69;101032.22;5064604;28;19916;-80
2022/06/06 02:13:34;;;;;;;;;;;;;;;24.85;67.73;101039.38;5072483;28;20273;-80
2022/06/06 02:16:00;;;;;;;;;;;;;;;24.81;67.66;101040.25;5074580;28;19966;-80
2022/06/06 02:18:26;;;;;;;;;;;;;;;24.82;67.68;101030.44;5073869;28;19979;-80
2022/06/06 02:20:51;;;;;;;;;;;;;;;24.78;67.87;101030.44;5078767;28;20521;-80
2022/06/06 02:23:17;;;;;;;;;;;;;;;24.77;67.74;101038.47;5066371;28;19932;-80
2022/06/06 02:25:42;;;;;;;;;;;;;;;24.75;67.75;101030.44;5077622;28;20406;-80
2022/06/06 02:28:07;;;;;;;;;;;;;;;24.74;67.46;101019.75;5082426;28;19951;-80
2022/06/06 02:30:34;;;;;;;;;;;;;;;24.78;67.65;101010.84;5067339;28;20035;-79
2022/06/06 02:33:00;;;;;;;;;;;;;;;24.78;67.23;101008.19;5076878;28;20403;-79
2022/06/06 02:35:27;;;;;;;;;;;;;;;24.74;67.53;101001.97;5081503;28;19916;-81
2022/06/06 02:37:56;;;;;;;;;;;;;;;24.77;67.39;101001.06;5075690;28;19986;-80
2022/06/06 02:40:22;;;;;;;;;;;;;;;24.72;67.28;100995.75;5085810;28;19923;-81
2022/06/06 02:42:48;;;;;;;;;;;;;;;24.71;67.35;100999.28;5080550;28;19920;-80
2022/06/06 02:45:16;;;;;;;;;;;;;;;24.73;67.45;101002.84;5072970;28;20433;-80
2022/06/06 02:47:46;;;;;;;;;;;;;;;24.75;67.04;101021.56;5064004;28;19920;-81
2022/06/06 02:50:13;;;;;;;;;;;;;;;24.73;67.17;101037.56;5072014;28;20003;-80
2022/06/06 02:52:39;;;;;;;;;;;;;;;24.72;67.07;101051.84;5075057;28;19919;-81
2022/06/06 02:55:05;;;;;;;;;;;;;;;24.71;66.95;101075.84;5072603;28;19908;-80
2022/06/06 02:57:31;;;;;;;;;;;;;;;24.71;66.82;101094.56;5073867;28;19916;-81
2022/06/06 02:59:56;;;;;;;;;;;;;;;24.70;66.69;101111.44;5071418;28;19909;-80
2022/06/06 03:02:21;;;;;;;;;;;;;;;24.68;66.46;101119.47;5077112;28;19935;-80
2022/06/06 03:04:47;;;;;;;;;;;;;;;24.64;66.64;101127.47;5059951;28;20305;-79
2022/06/06 03:07:18;;;;;;;;;;;;;;;24.63;66.66;101131.03;5070141;28;20282;-80
2022/06/06 03:09:50;;;;;;;;;;;;;;;24.64;66.54;101123.03;5077324;28;20407;-79
2022/06/06 03:12:16;;;;;;;;;;;;;;;24.63;66.74;101121.25;5066531;28;19909;-80
2022/06/06 03:14:50;;;;;;;;;;;;;;;24.64;66.35;101119.44;5071330;28;20309;-80
2022/06/06 03:23:10;;;;;;;;;;;;;;;24.62;66.69;101031.34;5066895;28;20333;-80
2022/06/06 03:25:38;;;;;;;;;;;;;;;24.60;67.11;100986.84;5054507;28;20314;-80
2022/06/06 03:28:12;;;;;;;;;;;;;;;24.56;67.29;100957.47;5075375;28;20373;-80
2022/06/06 03:30:40;;;;;;;;;;;;;;;24.57;67.43;100945.91;5071220;28;19909;-80
2022/06/06 03:33:09;;;;;;;;;;;;;;;24.57;67.60;100937.91;5060319;28;20379;-79
2022/06/06 03:35:37;;;;;;;;;;;;;;;24.58;67.70;100928.09;5068405;28;20259;-79
2022/06/06 03:38:12;;;;;;;;;;;;;;;24.58;68.06;100928.97;5070201;28;19915;-80
2022/06/06 03:40:38;;;;;;;;;;;;;;;24.57;68.35;100924.53;5056891;28;19909;-80
2022/06/06 03:43:08;;;;;;;;;;;;;;;24.59;68.23;100924.53;5071361;28;19919;-80
2022/06/06 03:45:33;;;;;;;;;;;;;;;24.58;68.66;100938.78;5055820;28;19909;-80
2022/06/06 03:48:29;;;;;;;;;;;;;;;24.57;68.51;100963.69;5063710;28;19908;-80
2022/06/06 03:50:59;;;;;;;;;;;;;;;24.59;68.81;100993.94;5052106;28;20412;-80
2022/06/06 03:53:32;;;;;;;;;;;;;;;24.57;69.06;101006.41;5064268;28;20309;-80
2022/06/06 03:56:17;;;;;;;;;;;;;;;24.55;69.23;101019.78;5075207;28;20282;-80
2022/06/06 03:58:42;;;;;;;;;;;;;;;24.55;69.00;101016.19;5066726;28;19908;-80
2022/06/06 04:01:09;;;;;;;;;;;;;;;24.56;68.56;101018.00;5070045;28;19965;-79
2022/06/06 04:03:35;;;;;;;;;;;;;;;24.54;68.91;101009.97;5061147;28;19912;-80
2022/06/06 04:06:01;;;;;;;;;;;;;;;24.54;68.96;100999.28;5073265;28;19915;-80
2022/06/06 04:08:27;;;;;;;;;;;;;;;24.56;68.81;100994.84;5056002;28;19915;-80
2022/06/06 04:11:01;;;;;;;;;;;;;;;24.57;68.83;100996.63;5070282;28;19909;-80
2022/06/06 04:13:34;;;;;;;;;;;;;;;24.58;68.86;100995.72;5083816;28;20309;-80
2022/06/06 04:16:14;;;;;;;;;;;;;;;24.58;69.17;100997.53;5069728;28;20381;-80
2022/06/06 04:18:46;;;;;;;;;;;;;;;24.60;68.95;101000.19;5068481;28;20040;-80
2022/06/06 04:21:14;;;;;;;;;;;;;;;24.60;68.91;101013.56;5069986;28;19909;-80
2022/06/06 04:23:50;;;;;;;;;;;;;;;24.57;69.31;101011.75;5064810;28;20490;-80
2022/06/06 04:26:15;;;;;;;;;;;;;;;24.61;68.95;101005.53;5068268;28;20569;-79
2022/06/06 04:28:56;;;;;;;;;;;;;;;24.62;68.90;101007.31;5074120;28;19912;-79
2022/06/06 04:31:24;;;;;;;;;;;;;;;24.54;69.38;101006.41;5068393;28;19966;-79
2022/06/06 04:33:52;;;;;;;;;;;;;;;24.60;69.38;101017.09;5066994;28;20491;-80
2022/06/06 04:36:36;;;;;;;;;;;;;;;24.62;69.43;101031.34;5068345;28;19948;-78
2022/06/06 04:39:11;;;;;;;;;;;;;;;24.62;69.37;101066.06;5067194;28;19912;-79
2022/06/06 04:41:45;;;;;;;;;;;;;;;24.65;69.27;101102.56;5072576;28;19919;-79
2022/06/06 04:44:16;;;;;;;;;;;;;;;24.62;69.63;101139.91;5072730;28;20003;-79
2022/06/06 04:46:45;;;;;;;;;;;;;;;24.56;69.75;101154.16;5066717;28;20370;-79
2022/06/06 04:49:13;;;;;;;;;;;;;;;24.59;69.68;101172.84;5072483;28;20024;-79
2022/06/06 04:51:40;;;;;;;;;;;;;;;24.52;69.32;101179.06;5066721;28;20599;-79
2022/06/06 04:54:06;;;;;;;;;;;;;;;24.50;69.49;101197.75;5072748;28;20309;-80
2022/06/06 04:56:32;;;;;;;;;;;;;;;24.53;69.16;101196.88;5066055;28;19909;-80
2022/06/06 04:58:58;;;;;;;;;;;;;;;24.51;68.93;101177.28;5075495;28;19962;-79
2022/06/06 05:01:24;;;;;;;;;;;;;;;24.38;69.26;101166.56;5054931;28;19923;-79
2022/06/06 05:03:50;;;;;;;;;;;;;;;24.39;68.90;101171.00;5062303;28;19912;-79
2022/06/06 05:06:26;;;;;;;;;;;;;;;24.35;69.61;101182.53;5059095;28;20385;-79
2022/06/06 05:08:55;;;;;;;;;;;;;;;24.40;68.91;101185.22;5076615;28;19913;-79
2022/06/06 05:11:36;;;;;;;;;;;;;;;24.45;69.09;101198.56;5073488;28;19908;-79
2022/06/06 05:14:01;;;;;;;;;;;;;;;24.48;68.72;101188.81;5073463;28;19994;-79
2022/06/06 05:16:26;;;;;;;;;;;;;;;24.48;68.59;101163.91;5072741;28;20489;-78
2022/06/06 05:18:58;;;;;;;;;;;;;;;24.42;68.64;101171.88;5058996;28;20370;-80
2022/06/06 05:21:42;;;;;;;;;;;;;;;24.36;68.63;101186.09;5060589;28;20332;-80
2022/06/06 05:24:16;;;;;;;;;;;;;;;24.36;68.54;101189.69;5060523;28;19916;-81
2022/06/06 05:27:02;;;;;;;;;;;;;;;24.42;68.26;101188.78;5073124;28;20363;-80
2022/06/06 05:29:37;;;;;;;;;;;;;;;24.40;68.54;101177.22;5063949;28;20010;-80
2022/06/06 05:32:06;;;;;;;;;;;;;;;24.33;68.56;101151.41;5066922;28;20366;-80
2022/06/06 05:34:37;;;;;;;;;;;;;;;24.35;68.43;101142.50;5062165;28;19962;-81
2022/06/06 05:37:14;;;;;;;;;;;;;;;24.30;68.42;101157.63;5054818;28;19908;-81
2022/06/06 05:39:40;;;;;;;;;;;;;;;24.26;68.86;101147.81;5061896;28;20538;-80
2022/06/06 05:42:05;;;;;;;;;;;;;;;24.32;68.30;101145.19;5069150;28;20381;-80
2022/06/06 05:44:54;;;;;;;;;;;;;;;24.33;67.88;101154.06;5072502;28;19931;-81
2022/06/06 05:47:38;;;;;;;;;;;;;;;24.27;67.77;101144.25;5054390;28;19912;-81
2022/06/06 05:50:33;;;;;;;;;;;;;;;24.32;67.92;101147.84;5068264;28;20386;-80
2022/06/06 05:53:04;;;;;;;;;;;;;;;24.32;67.76;101136.25;5040384;28;19909;-80
2022/06/06 05:55:41;;;;;;;;;;;;;;;24.34;67.71;101131.81;5071237;28;19912;-80
2022/06/06 05:58:30;;;;;;;;;;;;;;;24.32;67.89;101145.19;5070660;28;19913;-80
2022/06/06 06:01:10;;;;;;;;;;;;;;;24.31;67.98;101156.72;5070042;28;19909;-80
2022/06/06 06:03:56;;;;;;;;;;;;;;;24.29;67.96;101160.28;5058814;28;20022;-80
2022/06/06 06:06:22;;;;;;;;;;;;;;;24.30;67.58;101157.63;5057743;28;19913;-81
2022/06/06 06:08:50;;;;;;;;;;;;;;;24.30;67.77;101162.03;5071170;28;20593;-81
2022/06/06 06:11:28;;;;;;;;;;;;;;;24.18;68.18;101163.78;5072219;28;19974;-82
2022/06/06 06:13:57;;;;;;;;;;;;;;;24.20;68.17;101186.94;5059430;28;20344;-83
2022/06/06 06:16:23;;;;;;;;;;;;;;;24.20;68.54;101221.63;5072406;28;19916;-83
2022/06/06 06:18:53;;;;;;;;;;;;;;;24.26;68.08;101256.34;5071973;28;20368;-83
2022/06/06 06:21:23;;;;;;;;;;;;;;;24.27;68.26;101285.69;5059523;28;19908;-82
2022/06/06 06:24:09;;;;;;;;;;;;;;;24.27;67.95;101299.06;5070776;28;19966;-82
2022/06/06 06:26:35;;;;;;;;;;;;;;;24.30;68.00;101306.19;5052173;28;19909;-83
2022/06/06 06:29:01;;;;;;;;;;;;;;;24.30;68.10;101287.50;5065910;28;19915;-82
2022/06/06 06:31:33;;;;;;;;;;;;;;;24.29;68.07;101297.28;5062224;28;19912;-83
2022/06/06 06:34:12;;;;;;;;;;;;;;;24.30;68.21;101288.41;5057136;28;19973;-83
2022/06/06 06:36:41;;;;;;;;;;;;;;;24.28;68.18;101286.63;5070803;28;20309;-81
2022/06/06 06:39:13;;;;;;;;;;;;;;;24.27;68.23;101283.03;5067064;28;19913;-82
2022/06/06 06:41:52;;;;;;;;;;;;;;;24.26;68.34;101281.25;5078887;28;19909;-82
2022/06/06 06:44:18;;;;;;;;;;;;;;;24.27;68.22;101283.03;5057160;28;19927;-80
2022/06/06 06:46:46;;;;;;;;;;;;;;;24.27;68.31;101296.38;5058769;28;19930;-81
2022/06/06 06:49:15;;;;;;;;;;;;;;;24.26;68.18;101296.41;5084748;28;19909;-82
2022/06/06 06:51:47;;;;;;;;;;;;;;;24.29;67.82;101286.59;5070005;28;20290;-83
2022/06/06 06:54:16;;;;;;;;;;;;;;;24.26;67.89;101270.59;5070241;28;19908;-83
2022/06/06 06:56:45;;;;;;;;;;;;;;;24.27;67.90;101260.81;5062216;28;20416;-83
2022/06/06 06:59:18;;;;;;;;;;;;;;;24.29;67.67;101264.38;5082909;28;19913;-81
2022/06/06 07:10:49;;;;;;;;;;;;;;;24.25;68.10;101255.44;5029444;28;19962;-83
2022/06/06 07:13:21;;;;;;;;;;;;;;;24.25;67.95;101260.78;5015071;28;20357;-83
2022/06/06 07:15:54;;;;;;;;;;;;;;;24.28;67.91;101249.25;5047461;28;20416;-82
2022/06/06 07:18:21;;;;;;;;;;;;;;;24.25;68.12;101250.09;5067882;28;19909;-82
2022/06/06 07:20:46;;;;;;;;;;;;;;;24.24;68.10;101235.00;5066529;28;19912;-82
2022/06/06 07:23:14;;;;;;;;;;;;;;;24.25;68.05;101223.41;5077365;28;19913;-82
2022/06/06 07:25:49;;;;;;;;;;;;;;;24.29;68.08;101229.66;5074121;28;20354;-83
2022/06/06 07:28:15;;;;;;;;;;;;;;;24.28;68.17;101239.47;5075384;28;20297;-83
2022/06/06 07:30:55;;;;;;;;;;;;;;;24.27;68.08;101239.44;5054328;28;19916;-82
2022/06/06 07:33:24;;;;;;;;;;;;;;;24.26;68.41;101237.69;5070648;28;19916;-82
2022/06/06 07:35:58;;;;;;;;;;;;;;;24.29;68.49;101240.34;5072755;28;19916;-82
2022/06/06 07:38:59;;;;;;;;;;;;;;;24.30;68.25;101236.78;5055264;28;19908;-82
2022/06/06 07:41:27;;;;;;;;;;;;;;;24.29;68.44;101254.56;5022585;28;20003;-81
2022/06/06 07:43:55;;;;;;;;;;;;;;;24.29;68.58;101251.91;5050487;28;19912;-81
2022/06/06 07:46:27;;;;;;;;;;;;;;;24.28;68.52;101255.47;5063380;28;20430;-81
2022/06/06 07:48:55;;;;;;;;;;;;;;;24.30;68.55;101266.13;5073745;28;19908;-82
2022/06/06 07:51:27;;;;;;;;;;;;;;;24.31;68.60;101268.81;5061924;28;20362;-82
2022/06/06 07:53:53;;;;;;;;;;;;;;;24.30;68.35;101274.16;5068924;28;20378;-82
2022/06/06 07:56:18;;;;;;;;;;;;;;;24.31;68.67;101270.59;5074771;28;19965;-82
2022/06/06 07:58:44;;;;;;;;;;;;;;;24.32;68.49;101275.06;5067564;28;20496;-80
2022/06/06 08:01:14;;;;;;;;;;;;;;;24.33;68.47;101276.84;5074445;28;19957;-80
2022/06/06 08:03:46;;;;;;;;;;;;;;;24.32;68.55;101294.66;5077078;28;19912;-81
2022/06/06 08:06:11;;;;;;;;;;;;;;;24.32;68.76;101296.41;5059890;28;19986;-82
2022/06/06 08:08:55;;;;;;;;;;;;;;;24.32;68.55;101307.06;5073949;28;19947;-81
2022/06/06 08:11:36;;;;;;;;;;;;;;;24.30;68.33;101301.75;5074405;28;20003;-80
2022/06/06 08:14:01;;;;;;;;;;;;;;;24.30;68.70;101312.44;5074579;28;20371;-81
2022/06/06 08:16:30;;;;;;;;;;;;;;;24.32;68.44;101312.41;5074090;28;19924;-81
2022/06/06 08:19:14;;;;;;;;;;;;;;;24.32;68.67;101313.34;5068002;28;19909;-81
2022/06/06 08:21:41;;;;;;;;;;;;;;;24.28;68.54;101316.88;5068839;28;19958;-80
2022/06/06 08:24:08;;;;;;;;;;;;;;;24.25;68.43;101313.28;5074558;28;20348;-80
2022/06/06 08:26:37;;;;;;;;;;;;;;;24.19;68.59;101308.78;5060878;28;19909;-81
2022/06/06 08:29:04;;;;;;;;;;;;;;;24.29;68.22;101318.63;5068103;28;19916;-81
2022/06/06 08:31:30;;;;;;;;;;;;;;;24.28;68.52;101329.31;5066331;28;19909;-81
2022/06/06 08:33:55;;;;;;;;;;;;;;;24.30;68.38;101323.13;5072419;28;20355;-81
2022/06/06 08:36:39;;;;;;;;;;;;;;;24.32;68.40;101321.34;5064013;28;19952;-81
2022/06/06 08:39:23;;;;;;;;;;;;;;;24.32;68.03;101321.34;5067877;28;19938;-81
2022/06/06 08:41:52;;;;;;;;;;;;;;;24.31;68.16;101324.00;5067144;28;19944;-81
2022/06/06 08:44:35;;;;;;;;;;;;;;;24.30;68.37;101330.19;5073586;28;20037;-81
2022/06/06 08:47:12;;;;;;;;;;;;;;;24.28;68.35;101326.66;5060150;28;20297;-81
2022/06/06 08:52:59;;;;;;;;;;;;;;;24.22;68.77;101322.16;5065038;28;20392;-81
2022/06/06 08:55:27;;;;;;;;;;;;;;;24.32;68.26;101323.09;5073557;28;19999;-82
2022/06/06 08:57:56;;;;;;;;;;;;;;;24.32;68.48;101323.09;5066546;28;19908;-80
2022/06/06 09:00:30;;;;;;;;;;;;;;;24.31;68.34;101324.88;5073550;28;19908;-81
2022/06/06 09:03:08;;;;;;;;;;;;;;;24.32;68.29;101325.75;5057792;28;20305;-80
2022/06/06 09:05:49;;;;;;;;;;;;;;;24.30;68.39;101320.44;5065075;28;19962;-80
2022/06/06 09:08:28;;;;;;;;;;;;;;;24.31;68.18;101327.56;5067178;28;19908;-81
2022/06/06 09:11:12;;;;;;;;;;;;;;;24.29;68.12;101331.09;5068904;28;19908;-80
2022/06/06 09:13:56;;;;;;;;;;;;;;;24.31;68.05;101340.00;5087464;28;19912;-81
2022/06/06 09:16:36;;;;;;;;;;;;;;;24.28;68.31;101329.31;5072837;28;19954;-81
2022/06/06 09:19:17;;;;;;;;;;;;;;;24.35;68.05;101331.16;5073181;28;19915;-81
2022/06/06 09:21:55;;;;;;;;;;;;;;;24.33;68.22;101319.56;5069828;28;19908;-81
2022/06/06 09:24:28;;;;;;;;;;;;;;;24.35;68.03;101318.69;5062157;28;19989;-81
2022/06/06 09:26:56;;;;;;;;;;;;;;;24.31;68.16;101322.22;5058666;28;19952;-81
2022/06/06 09:29:45;;;;;;;;;;;;;;;24.37;67.87;101332.94;5064246;28;20305;-81
2022/06/06 09:32:30;;;;;;;;;;;;;;;24.37;67.79;101326.69;5070901;28;19917;-81
2022/06/06 09:35:02;;;;;;;;;;;;;;;24.35;67.89;101324.03;5059249;28;19913;-81
2022/06/06 09:37:39;;;;;;;;;;;;;;;24.33;67.82;101323.13;5082391;28;19942;-81
2022/06/06 09:40:11;;;;;;;;;;;;;;;24.34;67.57;101324.00;5065624;28;19908;-81
2022/06/06 09:43:15;;;;;;;;;;;;;;;24.36;67.42;101316.91;5066901;28;19916;-81
2022/06/06 09:45:59;;;;;;;;;;;;;;;24.35;67.25;101305.31;5050394;28;19916;-81
2022/06/06 09:48:24;;;;;;;;;;;;;;;24.32;67.58;101316.00;5050111;28;20442;-81
2022/06/06 09:50:52;;;;;;;;;;;;;;;24.34;67.35;101314.25;5056135;28;19915;-81
2022/06/06 09:53:18;;;;;;;;;;;;;;;24.33;67.44;101311.56;5065428;28;19931;-81
2022/06/06 09:59:04;;;;;;;;;;;;;;;24.34;67.34;101314.25;5067308;28;20393;-82
2022/06/06 10:01:48;;;;;;;;;;;;;;;24.32;67.38;101307.06;5080938;28;19923;-82
2022/06/06 10:04:33;;;;;;;;;;;;;;;24.34;67.36;101307.97;5052114;28;19914;-81
2022/06/06 10:07:11;;;;;;;;;;;;;;;24.32;67.26;101315.09;5052562;28;19909;-81
2022/06/06 10:09:46;;;;;;;;;;;;;;;24.30;67.55;101319.53;5081494;28;19912;-81
2022/06/06 10:12:35;;;;;;;;;;;;;;;24.33;67.39;101323.13;5050941;28;19909;-81
2022/06/06 10:15:00;;;;;;;;;;;;;;;24.33;67.31;101322.22;5052678;28;19943;-81
2022/06/06 10:17:29;;;;;;;;;;;;;;;24.35;67.26;101324.03;5063990;28;19908;-81
2022/06/06 10:20:04;;;;;;;;;;;;;;;24.36;67.32;101324.91;5067368;28;19990;-81
2022/06/06 10:22:32;;;;;;;;;;;;;;;24.36;67.43;101327.56;5071402;28;19913;-81
2022/06/06 10:25:13;;;;;;;;;;;;;;;24.37;67.00;101327.59;5051812;28;20000;-80
2022/06/06 10:27:44;;;;;;;;;;;;;;;24.33;67.42;101322.22;5051941;28;19909;-81
2022/06/06 10:30:13;;;;;;;;;;;;;;;24.32;67.27;101324.00;5052591;28;20377;-81
2022/06/06 10:32:45;;;;;;;;;;;;;;;24.38;67.21;101324.06;5071949;28;20329;-80
2022/06/06 10:35:24;;;;;;;;;;;;;;;24.33;67.26;101320.44;5057405;28;19909;-80
2022/06/06 10:38:10;;;;;;;;;;;;;;;24.33;67.24;101320.44;5071996;28;19909;-81
2022/06/06 10:40:48;;;;;;;;;;;;;;;24.31;67.06;101314.19;5050522;28;19943;-80
2022/06/06 10:43:28;;;;;;;;;;;;;;;24.29;67.30;101312.41;5061685;28;19916;-81
2022/06/06 10:46:06;;;;;;;;;;;;;;;24.31;67.09;101306.19;5066837;28;19909;-81
2022/06/06 10:48:58;;;;;;;;;;;;;;;24.34;66.91;101294.63;5062290;28;19909;-81
2022/06/06 10:51:37;;;;;;;;;;;;;;;24.30;67.32;101296.41;5058088;28;19908;-81
2022/06/06 10:54:30;;;;;;;;;;;;;;;24.31;66.90;101290.19;5069765;28;19912;-82
2022/06/06 10:56:55;;;;;;;;;;;;;;;24.29;67.16;101285.72;5071083;28;20007;-82
2022/06/06 10:59:52;;;;;;;;;;;;;;;24.31;67.14;101275.94;5062507;28;19955;-81
2022/06/06 11:02:17;;;;;;;;;;;;;;;24.32;66.85;101272.38;5066814;28;19956;-81
2022/06/06 11:05:01;;;;;;;;;;;;;;;24.32;66.94;101275.97;5080779;28;19951;-82
2022/06/06 11:07:33;;;;;;;;;;;;;;;24.31;66.87;101273.28;5067273;28;20556;-81
2022/06/06 11:09:58;;;;;;;;;;;;;;;24.34;67.03;101268.88;5068036;28;19977;-81
2022/06/06 11:12:36;;;;;;;;;;;;;;;24.36;66.71;101271.50;5071551;28;20373;-81
2022/06/06 11:15:02;;;;;;;;;;;;;;;24.39;66.80;101276.88;5054491;28;20305;-81
2022/06/06 11:17:54;;;;;;;;;;;;;;;24.33;66.90;101267.06;5067078;28;19962;-81
2022/06/06 11:20:23;;;;;;;;;;;;;;;24.35;66.94;101267.97;5063975;28;19909;-81
2022/06/06 11:23:07;;;;;;;;;;;;;;;24.32;67.00;101278.63;5061770;28;19999;-82
2022/06/06 11:25:53;;;;;;;;;;;;;;;24.42;66.69;101271.53;5057141;28;19915;-81
2022/06/06 11:28:47;;;;;;;;;;;;;;;24.34;67.02;101267.94;5049758;28;19913;-81
2022/06/06 11:31:16;;;;;;;;;;;;;;;24.38;66.95;101256.41;5047730;28;19912;-81
2022/06/06 11:33:41;;;;;;;;;;;;;;;24.34;66.80;101260.84;5054913;28;19909;-81
2022/06/06 11:36:19;;;;;;;;;;;;;;;24.38;66.88;101267.06;5051399;28;20007;-81
2022/06/06 11:38:46;;;;;;;;;;;;;;;24.41;66.73;101258.22;5080600;28;20374;-80
2022/06/06 11:41:23;;;;;;;;;;;;;;;24.41;66.84;101260.88;5063713;28;19939;-80
2022/06/06 11:43:55;;;;;;;;;;;;;;;24.39;66.80;101258.19;5066410;28;19920;-81
2022/06/06 11:46:32;;;;;;;;;;;;;;;24.38;66.59;101251.97;5071135;28;19915;-81
2022/06/06 11:48:58;;;;;;;;;;;;;;;24.36;66.98;101251.06;5060874;28;20411;-82
2022/06/06 11:51:42;;;;;;;;;;;;;;;24.35;67.14;101257.28;5063305;28;19908;-83
2022/06/06 11:54:33;;;;;;;;;;;;;;;24.33;67.16;101253.72;5063895;28;19935;-82
2022/06/06 11:57:33;;;;;;;;;;;;;;;24.30;67.21;101250.13;5068128;28;19942;-81
2022/06/06 12:00:11;;;;;;;;;;;;;;;24.32;67.05;101254.59;5019176;28;19912;-81
2022/06/06 12:02:39;;;;;;;;;;;;;;;24.33;66.83;101255.50;5053847;28;19965;-82
2022/06/06 12:05:14;;;;;;;;;;;;;;;24.33;66.87;101251.03;5062435;28;19913;-82
2022/06/06 12:07:43;;;;;;;;;;;;;;;24.32;66.27;101251.94;5066000;28;19912;-83
2022/06/06 12:10:08;;;;;;;;;;;;;;;24.44;66.20;101252.88;5071695;28;19919;-81
2022/06/06 12:12:40;;;;;;;;;;;;;;;24.41;66.56;101255.53;5054224;28;19909;-81
2022/06/06 12:15:24;;;;;;;;;;;;;;;24.39;66.33;101244.84;5066943;28;20176;-81
2022/06/06 12:17:55;;;;;;;;;;;;;;;24.39;66.63;101232.38;5082935;28;19921;-81
2022/06/06 12:20:26;;;;;;;;;;;;;;;24.36;65.85;101232.38;5071280;28;19920;-82
2022/06/06 12:23:10;;;;;;;;;;;;;;;24.39;66.29;101237.72;5081987;28;19955;-81
2022/06/06 12:25:36;;;;;;;;;;;;;;;24.45;66.11;101236.88;5070900;28;19908;-81
2022/06/06 12:28:01;;;;;;;;;;;;;;;24.43;66.36;101229.75;5063156;28;19970;-81
2022/06/06 12:30:32;;;;;;;;;;;;;;;24.46;66.19;101221.75;5079992;28;19926;-81
2022/06/06 12:33:05;;;;;;;;;;;;;;;24.44;66.38;101227.06;5070298;28;19916;-82
2022/06/06 12:35:49;;;;;;;;;;;;;;;24.45;66.40;101238.63;5063000;28;19916;-82
2022/06/06 12:38:20;;;;;;;;;;;;;;;24.44;66.37;101234.19;5073421;28;19920;-82
2022/06/06 12:41:01;;;;;;;;;;;;;;;24.40;66.29;101241.28;5067837;28;20313;-83
2022/06/06 12:43:30;;;;;;;;;;;;;;;24.45;66.24;101234.19;5071780;28;19917;-80
2022/06/06 12:46:14;;;;;;;;;;;;;;;24.45;66.58;101241.28;5052574;28;19908;-81
2022/06/06 12:48:40;;;;;;;;;;;;;;;24.44;66.37;101234.19;5085472;28;19916;-81
2022/06/06 12:51:35;;;;;;;;;;;;;;;24.43;66.46;101233.31;5074462;28;20355;-80
2022/06/06 12:54:06;;;;;;;;;;;;;;;24.45;66.33;101230.63;5065370;28;20007;-80
2022/06/06 12:56:50;;;;;;;;;;;;;;;24.47;66.45;101231.50;5082786;28;20392;-80
2022/06/06 12:59:24;;;;;;;;;;;;;;;24.47;66.29;101228.84;5059789;28;19913;-80
2022/06/06 13:01:56;;;;;;;;;;;;;;;24.48;66.15;101226.19;5057467;28;19978;-81
2022/06/06 13:04:39;;;;;;;;;;;;;;;24.47;66.39;101240.44;5075565;28;19965;-80
2022/06/06 13:07:07;;;;;;;;;;;;;;;24.47;66.36;101240.44;5088328;28;19999;-81
2022/06/06 13:09:44;;;;;;;;;;;;;;;24.45;66.25;101251.97;5062075;28;20400;-80
2022/06/06 13:12:16;;;;;;;;;;;;;;;24.46;66.43;101267.13;5064988;28;19955;-80
2022/06/06 13:14:53;;;;;;;;;;;;;;;24.40;66.44;101289.34;5061433;28;19908;-82
2022/06/06 13:17:25;;;;;;;;;;;;;;;24.38;66.53;101292.03;5063618;28;19948;-81
2022/06/06 13:20:04;;;;;;;;;;;;;;;24.36;66.71;101284.84;5062702;28;19916;-79
2022/06/06 13:22:47;;;;;;;;;;;;;;;24.44;66.93;101288.47;5066689;28;19916;-81
2022/06/06 13:25:13;;;;;;;;;;;;;;;24.41;66.79;101284.91;5079798;28;19912;-85